Time,TemperatureF,DewpointF,PressureIn,WindDirection,WindDirectionDegrees,WindSpeedMPH,WindSpeedGustMPH,Humidity,HourlyPrecipIn,Conditions,Clouds,dailyrainin,SoftwareType,DateUTC
2013-07-20 00:10:00,71.7,69.0,30.03,North,6,2.0,3.0,91,0.00,,,0.00,weatherlink.com 1.10,2013-07-20 04:10:00,
2013-07-20 00:25:00,71.8,69.0,30.03,NNE,13,1.0,2.0,91,0.00,,,0.00,weatherlink.com 1.10,2013-07-20 04:25:00,
2013-07-20 00:40:00,70.8,68.0,30.02,WSW,239,0.0,1.0,92,0.00,,,0.00,weatherlink.com 1.10,2013-07-20 04:40:00,
2013-07-20 00:55:00,70.4,68.0,30.02,ENE,70,0.0,2.0,93,0.00,,,0.00,weatherlink.com 1.10,2013-07-20 04:55:00,
2013-07-20 01:10:00,70.1,68.0,30.01,SW,218,0.0,1.0,94,0.00,,,0.00,weatherlink.com 1.10,2013-07-20 05:10:00,
2013-07-20 01:25:00,70.1,68.0,30.01,SSE,150,0.0,3.0,93,0.00,,,0.00,weatherlink.com 1.10,2013-07-20 05:25:00,
2013-07-20 01:41:00,69.9,68.0,30.01,SSW,211,0.0,2.0,94,0.00,,,0.00,weatherlink.com 1.10,2013-07-20 05:41:00,
2013-07-20 01:55:00,69.6,68.0,30.00,SSW,211,0.0,1.0,95,0.00,,,0.00,weatherlink.com 1.10,2013-07-20 05:55:00,
2013-07-20 02:10:00,69.3,68.0,29.99,SSE,147,0.0,2.0,95,0.00,,,0.00,weatherlink.com 1.10,2013-07-20 06:10:00,
2013-07-20 02:25:00,69.3,68.0,29.99,SW,229,0.0,2.0,95,0.00,,,0.00,weatherlink.com 1.10,2013-07-20 06:25:00,
2013-07-20 02:40:00,69.1,68.0,29.99,WNW,290,0.0,0.0,95,0.00,,,0.00,weatherlink.com 1.10,2013-07-20 06:40:00,
2013-07-20 02:55:00,69.3,68.0,29.99,NNW,335,2.0,4.0,95,0.00,,,0.00,weatherlink.com 1.10,2013-07-20 06:55:00,
2013-07-20 03:10:00,69.2,68.0,29.99,NNE,30,0.0,3.0,95,0.00,,,0.00,weatherlink.com 1.10,2013-07-20 07:10:00,
2013-07-20 03:25:00,68.4,67.0,29.99,SW,231,0.0,2.0,96,0.00,,,0.00,weatherlink.com 1.10,2013-07-20 07:25:00,
2013-07-20 03:40:00,68.4,67.0,29.99,South,179,0.0,2.0,96,0.00,,,0.00,weatherlink.com 1.10,2013-07-20 07:40:00,
2013-07-20 03:55:00,68.4,67.0,29.99,SW,236,0.0,1.0,96,0.00,,,0.00,weatherlink.com 1.10,2013-07-20 07:55:00,
2013-07-20 04:10:00,68.3,68.0,29.99,WNW,294,1.0,1.0,97,0.00,,,0.00,weatherlink.com 1.10,2013-07-20 08:10:00,
2013-07-20 04:25:00,68.4,67.0,29.99,NNE,33,0.0,2.0,96,0.00,,,0.00,weatherlink.com 1.10,2013-07-20 08:25:00,
2013-07-20 04:40:00,68.0,67.0,29.99,WNW,288,0.0,1.0,96,0.00,,,0.00,weatherlink.com 1.10,2013-07-20 08:40:00,
2013-07-20 04:55:00,68.1,67.0,29.99,NNW,328,0.0,1.0,96,0.00,,,0.00,weatherlink.com 1.10,2013-07-20 08:55:00,
2013-07-20 05:10:00,67.9,67.0,29.99,NW,321,0.0,1.0,96,0.00,,,0.00,weatherlink.com 1.10,2013-07-20 09:10:00,
2013-07-20 05:25:00,68.0,67.0,29.99,NNW,338,0.0,1.0,96,0.00,,,0.00,weatherlink.com 1.10,2013-07-20 09:25:00,
2013-07-20 05:40:00,67.7,67.0,30.00,WSW,246,0.0,1.0,96,0.00,,,0.00,weatherlink.com 1.10,2013-07-20 09:40:00,
2013-07-20 05:55:00,67.4,67.0,29.99,NNE,18,0.0,1.0,97,0.00,,,0.00,weatherlink.com 1.10,2013-07-20 09:55:00,
2013-07-20 06:10:00,67.5,67.0,30.00,NNW,328,0.0,1.0,97,0.00,,,0.00,weatherlink.com 1.10,2013-07-20 10:10:00,
2013-07-20 06:25:00,67.3,67.0,30.00,NW,319,0.0,1.0,97,0.00,,,0.00,weatherlink.com 1.10,2013-07-20 10:25:00,
2013-07-20 06:40:00,67.4,67.0,30.00,NW,319,0.0,1.0,97,0.00,,,0.00,weatherlink.com 1.10,2013-07-20 10:40:00,
2013-07-20 06:55:00,68.2,67.0,30.00,NNE,29,0.0,3.0,97,0.00,,,0.00,weatherlink.com 1.10,2013-07-20 10:55:00,
2013-07-20 07:10:00,68.1,67.0,30.00,NNW,338,0.0,1.0,96,0.00,,,0.00,weatherlink.com 1.10,2013-07-20 11:10:00,
2013-07-20 07:25:00,68.2,67.0,30.00,West,269,0.0,0.0,97,0.00,,,0.00,weatherlink.com 1.10,2013-07-20 11:25:00,
2013-07-20 07:40:00,68.9,68.0,30.01,NW,321,0.0,2.0,96,0.00,,,0.00,weatherlink.com 1.10,2013-07-20 11:40:00,
2013-07-20 07:55:00,70.0,69.0,30.01,NNW,348,2.0,4.0,96,0.00,,,0.00,weatherlink.com 1.10,2013-07-20 11:55:00,
2013-07-20 08:10:00,69.6,68.0,30.01,NW,326,1.0,2.0,95,0.00,,,0.00,weatherlink.com 1.10,2013-07-20 12:10:00,
2013-07-20 08:26:00,69.3,68.0,30.01,WNW,282,0.0,1.0,96,0.00,,,0.00,weatherlink.com 1.10,2013-07-20 12:26:00,
2013-07-20 08:40:00,70.1,69.0,30.01,North,4,2.0,3.0,95,0.00,,,0.00,weatherlink.com 1.10,2013-07-20 12:40:00,
2013-07-20 08:56:00,70.5,69.0,30.01,North,1,1.0,3.0,95,0.00,,,0.00,weatherlink.com 1.10,2013-07-20 12:56:00,
2013-07-20 09:11:00,70.9,69.0,30.01,WNW,287,0.0,3.0,93,0.00,,,0.00,weatherlink.com 1.10,2013-07-20 13:11:00,
2013-07-20 09:27:00,70.9,69.0,30.02,North,355,3.0,6.0,93,0.00,,,0.00,weatherlink.com 1.10,2013-07-20 13:27:00,
2013-07-20 09:41:00,71.5,69.0,30.01,NE,53,0.0,5.0,93,0.00,,,0.00,weatherlink.com 1.10,2013-07-20 13:41:00,
2013-07-20 09:56:00,72.2,70.0,30.01,North,1,2.0,4.0,92,0.00,,,0.00,weatherlink.com 1.10,2013-07-20 13:56:00,
2013-07-20 10:11:00,74.1,70.0,30.01,NW,319,3.0,6.0,88,0.00,,,0.00,weatherlink.com 1.10,2013-07-20 14:11:00,
2013-07-20 10:26:00,76.8,72.0,30.01,NNW,337,2.0,4.0,84,0.00,,,0.00,weatherlink.com 1.10,2013-07-20 14:26:00,
2013-07-20 10:41:00,78.4,73.0,30.01,NNW,346,1.0,4.0,82,0.00,,,0.00,weatherlink.com 1.10,2013-07-20 14:41:00,
2013-07-20 10:56:00,78.9,72.0,30.00,NW,325,0.0,2.0,78,0.00,,,0.00,weatherlink.com 1.10,2013-07-20 14:56:00,
2013-07-20 11:11:00,80.6,72.0,30.00,NW,319,3.0,5.0,76,0.00,,,0.00,weatherlink.com 1.10,2013-07-20 15:11:00,
2013-07-20 11:26:00,81.7,71.0,30.00,NNE,23,4.0,6.0,71,0.00,,,0.00,weatherlink.com 1.10,2013-07-20 15:26:00,
2013-07-20 11:41:00,83.0,72.0,29.99,NNE,33,7.0,7.0,70,0.00,,,0.00,weatherlink.com 1.10,2013-07-20 15:41:00,
2013-07-20 11:56:00,81.6,72.0,29.98,North,353,8.0,11.0,72,0.00,,,0.00,weatherlink.com 1.10,2013-07-20 15:56:00,
2013-07-20 12:11:00,81.4,70.0,29.99,North,353,13.0,13.0,69,0.00,,,0.00,weatherlink.com 1.10,2013-07-20 16:11:00,
2013-07-20 12:26:00,81.3,69.0,29.99,North,4,9.0,11.0,67,0.00,,,0.00,weatherlink.com 1.10,2013-07-20 16:26:00,
2013-07-20 12:41:00,81.9,71.0,29.98,NNW,342,4.0,10.0,69,0.00,,,0.00,weatherlink.com 1.10,2013-07-20 16:41:00,
2013-07-20 12:56:00,82.2,70.0,29.97,North,8,7.0,12.0,67,0.00,,,0.00,weatherlink.com 1.10,2013-07-20 16:56:00,
2013-07-20 13:11:00,82.3,72.0,29.96,NNW,333,7.0,12.0,70,0.00,,,0.00,weatherlink.com 1.10,2013-07-20 17:11:00,
2013-07-20 13:26:00,81.6,71.0,29.97,North,11,8.0,10.0,70,0.00,,,0.00,weatherlink.com 1.10,2013-07-20 17:26:00,
2013-07-20 13:41:00,80.6,72.0,29.96,NNE,21,3.0,7.0,75,0.00,,,0.00,weatherlink.com 1.10,2013-07-20 17:41:00,
2013-07-20 13:56:00,78.9,72.0,29.95,WNW,283,2.0,9.0,78,0.00,,,0.00,weatherlink.com 1.10,2013-07-20 17:56:00,
2013-07-20 14:11:00,77.6,70.0,29.95,WSW,238,0.0,4.0,77,0.00,,,0.00,weatherlink.com 1.10,2013-07-20 18:11:00,
2013-07-20 14:26:00,76.5,68.0,29.95,SW,224,0.0,6.0,76,0.00,,,0.00,weatherlink.com 1.10,2013-07-20 18:26:00,
2013-07-20 14:41:00,76.1,69.0,29.95,North,7,3.0,4.0,79,0.00,,,0.00,weatherlink.com 1.10,2013-07-20 18:41:00,
2013-07-20 14:56:00,76.7,69.0,29.96,NNW,337,0.0,2.0,77,0.00,,,0.00,weatherlink.com 1.10,2013-07-20 18:56:00,
2013-07-20 15:11:00,77.1,70.0,29.95,WSW,249,0.0,2.0,78,0.00,,,0.00,weatherlink.com 1.10,2013-07-20 19:11:00,
2013-07-20 15:41:00,77.6,70.0,29.93,SSE,151,1.0,8.0,77,0.00,,,0.00,weatherlink.com 1.10,2013-07-20 19:41:00,
2013-07-20 16:11:00,80.0,71.0,29.94,SE,141,3.0,9.0,75,0.00,,,0.00,weatherlink.com 1.10,2013-07-20 20:11:00,
2013-07-20 16:26:00,79.8,71.0,29.94,SW,225,2.0,11.0,75,0.00,,,0.00,weatherlink.com 1.10,2013-07-20 20:26:00,
2013-07-20 16:56:00,79.7,71.0,29.94,SSW,212,4.0,12.0,74,0.00,,,0.00,weatherlink.com 1.10,2013-07-20 20:56:00,
2013-07-20 17:12:00,78.5,71.0,29.93,SE,141,3.0,9.0,78,0.00,,,0.00,weatherlink.com 1.10,2013-07-20 21:12:00,
2013-07-20 17:26:00,77.9,71.0,29.94,WSW,245,8.0,9.0,79,0.00,,,0.00,weatherlink.com 1.10,2013-07-20 21:26:00,
2013-07-20 17:41:00,77.4,70.0,29.94,NNE,26,2.0,9.0,79,0.00,,,0.00,weatherlink.com 1.10,2013-07-20 21:41:00,
2013-07-20 18:26:00,77.6,71.0,29.93,SW,215,3.0,7.0,79,0.00,,,0.00,weatherlink.com 1.10,2013-07-20 22:26:00,
2013-07-20 18:42:00,78.0,71.0,29.92,SSW,207,4.0,6.0,79,0.00,,,0.00,weatherlink.com 1.10,2013-07-20 22:42:00,
2013-07-20 18:57:00,78.3,71.0,29.92,WSW,246,1.0,3.0,79,0.00,,,0.00,weatherlink.com 1.10,2013-07-20 22:57:00,
2013-07-20 19:12:00,77.8,71.0,29.92,SSW,200,2.0,4.0,79,0.00,,,0.00,weatherlink.com 1.10,2013-07-20 23:12:00,
2013-07-20 19:27:00,77.4,71.0,29.92,SW,221,0.0,1.0,81,0.00,,,0.00,weatherlink.com 1.10,2013-07-20 23:27:00,
2013-07-20 20:12:00,76.0,72.0,29.93,NNE,28,0.0,3.0,86,0.00,,,0.00,weatherlink.com 1.10,2013-07-21 00:12:00,
2013-07-20 20:27:00,75.0,72.0,29.94,NW,321,0.0,2.0,89,0.00,,,0.00,weatherlink.com 1.10,2013-07-21 00:27:00,
2013-07-20 20:42:00,73.8,71.0,29.94,NNE,28,0.0,1.0,90,0.00,,,0.00,weatherlink.com 1.10,2013-07-21 00:42:00,
2013-07-20 20:57:00,73.2,71.0,29.95,NW,321,0.0,1.0,91,0.00,,,0.00,weatherlink.com 1.10,2013-07-21 00:57:00,
2013-07-20 21:12:00,72.6,71.0,29.95,NNW,328,0.0,2.0,93,0.00,,,0.00,weatherlink.com 1.10,2013-07-21 01:12:00,
2013-07-20 21:27:00,71.7,70.0,29.95,WSW,248,0.0,1.0,94,0.00,,,0.00,weatherlink.com 1.10,2013-07-21 01:27:00,
2013-07-20 21:57:00,71.2,69.0,29.98,NNE,18,3.0,3.0,94,0.00,,,0.00,weatherlink.com 1.10,2013-07-21 01:57:00,
2013-07-20 22:12:00,70.7,69.0,29.98,SSE,165,0.0,2.0,95,0.00,,,0.00,weatherlink.com 1.10,2013-07-21 02:12:00,
2013-07-20 22:27:00,70.4,69.0,29.98,SW,225,0.0,2.0,95,0.00,,,0.00,weatherlink.com 1.10,2013-07-21 02:27:00,
2013-07-20 22:42:00,70.2,69.0,29.99,SW,222,0.0,2.0,96,0.00,,,0.00,weatherlink.com 1.10,2013-07-21 02:42:00,
2013-07-20 22:57:00,70.1,69.0,29.98,SSW,204,1.0,2.0,95,0.00,,,0.00,weatherlink.com 1.10,2013-07-21 02:57:00,
2013-07-20 23:12:00,70.1,69.0,29.99,SW,228,0.0,2.0,95,0.00,,,0.00,weatherlink.com 1.10,2013-07-21 03:12:00,
2013-07-20 23:27:00,69.6,69.0,30.00,South,190,0.0,2.0,96,0.00,,,0.00,weatherlink.com 1.10,2013-07-21 03:27:00,
2013-07-20 23:42:00,69.8,69.0,30.00,NW,321,0.0,1.0,96,0.00,,,0.00,weatherlink.com 1.10,2013-07-21 03:42:00,
2013-07-20 23:57:00,69.5,68.0,29.99,NW,323,0.0,0.0,96,0.00,,,0.00,weatherlink.com 1.10,2013-07-21 03:57:00,